Time;durP1;ratioP1;P1;durP2;ratioP2;P2;SDS_P1;SDS_P2;PMS_P1;PMS_P2;Temp;Humidity;BMP_temperature;BMP_pressure;BME280_temperature;BME280_humidity;BME280_pressure;Samples;Min_cycle;Max_cycle;Signal;HPM_P1;HPM_P2
2024/04/06 00:02:13;;;;;;;2.58;1.30;;;15.20;92.40;;;;;;4992424;28;20058;-81
2024/04/06 00:04:41;;;;;;;4.82;1.48;;;15.20;92.20;;;;;;4992297;28;20042;-80
2024/04/06 00:07:08;;;;;;;3.10;1.60;;;15.20;92.40;;;;;;4991523;28;20105;-81
2024/04/06 00:09:34;;;;;;;2.70;1.30;;;15.10;92.00;;;;;;4992369;28;20058;-81
2024/04/06 00:12:00;;;;;;;3.20;1.63;;;15.20;92.50;;;;;;4992138;28;20065;-81
2024/04/06 00:14:26;;;;;;;3.17;1.52;;;15.10;92.30;;;;;;4992310;28;20054;-80
2024/04/06 00:16:52;;;;;;;2.85;1.50;;;15.10;92.10;;;;;;5008129;28;20073;-82
2024/04/06 00:19:18;;;;;;;2.22;1.55;;;15.10;92.10;;;;;;5008402;28;20069;-81
2024/04/06 00:21:44;;;;;;;4.65;1.70;;;15.10;92.50;;;;;;5008731;28;20445;-80
2024/04/06 00:24:10;;;;;;;5.65;1.40;;;15.10;92.30;;;;;;4994992;28;20059;-81
2024/04/06 00:26:36;;;;;;;6.50;1.70;;;15.10;92.10;;;;;;4993581;28;20126;-81
2024/04/06 00:29:05;;;;;;;4.47;1.45;;;15.00;92.70;;;;;;4995127;28;20485;-81
2024/04/06 00:31:33;;;;;;;3.35;1.70;;;15.00;92.80;;;;;;4978433;28;20050;-81
2024/04/06 00:34:01;;;;;;;4.88;1.40;;;14.90;93.00;;;;;;4994998;28;20391;-81
2024/04/06 00:36:28;;;;;;;3.42;1.42;;;14.90;92.70;;;;;;4995017;28;20056;-81
2024/04/06 00:38:54;;;;;;;5.45;1.35;;;14.90;92.70;;;;;;4994852;28;20474;-81
2024/04/06 00:41:20;;;;;;;5.53;1.42;;;14.80;92.30;;;;;;4995007;28;20050;-81
2024/04/06 00:43:46;;;;;;;4.35;1.90;;;14.80;92.70;;;;;;4994535;28;20046;-82
2024/04/06 00:46:12;;;;;;;4.47;1.77;;;14.70;92.90;;;;;;4994621;28;20088;-81
2024/04/06 00:48:38;;;;;;;3.13;1.35;;;14.70;93.00;;;;;;4995134;28;20056;-81
2024/04/06 00:51:06;;;;;;;5.47;1.40;;;14.70;93.30;;;;;;4994806;28;20469;-80
2024/04/06 00:53:33;;;;;;;3.92;1.50;;;14.70;93.50;;;;;;4994986;28;20068;-80
2024/04/06 00:56:00;;;;;;;2.33;1.38;;;14.70;93.80;;;;;;4992434;28;20050;-80
2024/04/06 00:58:27;;;;;;;1.83;1.23;;;14.70;93.80;;;;;;4994580;28;20123;-81
2024/04/06 01:00:53;;;;;;;4.15;1.30;;;14.70;93.60;;;;;;4994491;28;20092;-80
2024/04/06 01:03:19;;;;;;;4.18;1.38;;;14.70;93.60;;;;;;4994510;28;20475;-81
2024/04/06 01:05:46;;;;;;;2.60;1.42;;;14.70;94.00;;;;;;4994699;28;20089;-82
2024/04/06 01:08:12;;;;;;;3.97;1.20;;;14.70;94.00;;;;;;4994362;28;20056;-81
2024/04/06 01:10:38;;;;;;;2.75;1.08;;;14.70;93.90;;;;;;4994927;28;20387;-81
2024/04/06 01:13:04;;;;;;;4.10;1.13;;;14.70;93.90;;;;;;4994451;28;20439;-81
2024/04/06 01:15:34;;;;;;;2.85;1.30;;;14.70;93.90;;;;;;4994452;28;20062;-80
2024/04/06 01:18:01;;;;;;;2.58;1.13;;;14.70;93.90;;;;;;4994427;28;20061;-80
2024/04/06 01:20:28;;;;;;;1.15;0.75;;;14.70;93.90;;;;;;4994399;28;20552;-80
2024/04/06 01:22:54;;;;;;;3.22;1.00;;;14.60;94.00;;;;;;4994224;28;20123;-80
2024/04/06 01:25:20;;;;;;;4.30;1.42;;;14.60;93.80;;;;;;4994381;28;20478;-80
2024/04/06 01:27:46;;;;;;;4.18;1.10;;;14.60;93.80;;;;;;5010793;28;20352;-80
2024/04/06 01:30:15;;;;;;;2.88;1.00;;;14.60;94.10;;;;;;4994308;28;20054;-82
2024/04/06 01:32:51;;;;;;;1.65;0.93;;;14.50;94.00;;;;;;5010887;28;20062;-81
2024/04/06 01:35:17;;;;;;;2.88;1.02;;;14.50;93.80;;;;;;4991019;28;20418;-81
2024/04/06 01:37:46;;;;;;;4.22;1.00;;;14.40;94.20;;;;;;5010257;28;20072;-81
2024/04/06 01:40:12;;;;;;;5.45;0.93;;;14.40;93.90;;;;;;5010548;28;20058;-81
2024/04/06 01:42:41;;;;;;;2.78;1.10;;;14.40;93.90;;;;;;4992426;28;20057;-80
2024/04/06 01:45:09;;;;;;;3.00;1.15;;;14.40;94.10;;;;;;4993878;28;20045;-81
2024/04/06 01:47:35;;;;;;;7.05;1.30;;;14.40;94.00;;;;;;4994364;28;20363;-80
2024/04/06 01:50:07;;;;;;;8.27;1.02;;;14.40;93.60;;;;;;5010322;28;20060;-81
2024/04/06 01:52:32;;;;;;;4.68;0.90;;;14.40;93.40;;;;;;4993994;28;20104;-81
2024/04/06 01:55:00;;;;;;;3.45;0.70;;;14.40;93.30;;;;;;4994013;28;20061;-80
2024/04/06 01:57:26;;;;;;;2.70;0.93;;;14.40;93.20;;;;;;5010392;28;20104;-80
2024/04/06 01:59:52;;;;;;;1.58;0.90;;;14.40;92.90;;;;;;4994031;28;20057;-80
2024/04/06 02:02:18;;;;;;;0.63;0.60;;;14.50;93.00;;;;;;4993968;28;20474;-80
2024/04/06 02:04:46;;;;;;;1.88;0.90;;;14.50;92.70;;;;;;4993670;28;20470;-79
2024/04/06 02:07:15;;;;;;;3.72;1.38;;;14.50;92.80;;;;;;4994381;28;20054;-81
2024/04/06 02:09:41;;;;;;;4.43;0.93;;;14.50;92.90;;;;;;4977850;28;20062;-80
2024/04/06 02:12:08;;;;;;;0.70;0.60;;;14.50;92.40;;;;;;4993937;28;20092;-81
2024/04/06 02:14:34;;;;;;;1.63;0.82;;;14.60;92.10;;;;;;4994164;28;20062;-81
2024/04/06 02:17:03;;;;;;;3.63;1.00;;;14.60;91.90;;;;;;4993988;28;20124;-80
2024/04/06 02:19:29;;;;;;;1.25;0.80;;;14.60;92.00;;;;;;4993930;28;20058;-81
2024/04/06 02:21:55;;;;;;;3.92;1.00;;;14.60;92.10;;;;;;4993471;28;20054;-81
2024/04/06 02:24:21;;;;;;;2.75;0.95;;;14.60;92.30;;;;;;4994089;28;20054;-80
2024/04/06 02:26:48;;;;;;;3.10;0.90;;;14.60;92.10;;;;;;4993478;28;20475;-80
2024/04/06 02:29:14;;;;;;;2.17;0.80;;;14.60;92.60;;;;;;5001948;28;20057;-81
2024/04/06 02:31:42;;;;;;;9.07;0.90;;;14.70;92.80;;;;;;4996812;28;20054;-80
2024/04/06 02:34:08;;;;;;;1.77;0.88;;;14.60;93.00;;;;;;4997291;28;20053;-81
2024/04/06 02:36:38;;;;;;;3.13;0.73;;;14.60;92.70;;;;;;4997125;28;20065;-81
2024/04/06 02:39:10;;;;;;;1.45;1.00;;;14.60;92.40;;;;;;4981106;28;20061;-80
2024/04/06 02:41:37;;;;;;;2.65;1.02;;;14.70;92.80;;;;;;4997360;28;20060;-80
2024/04/06 02:44:03;;;;;;;6.03;1.13;;;14.70;92.30;;;;;;4997071;28;20104;-81
2024/04/06 02:46:29;;;;;;;2.60;0.93;;;14.60;92.60;;;;;;4997300;28;20048;-80
2024/04/06 02:48:55;;;;;;;3.63;0.90;;;14.70;92.60;;;;;;4997218;28;20391;-81
2024/04/06 02:51:20;;;;;;;1.50;0.85;;;14.70;92.80;;;;;;4997085;28;20096;-79
2024/04/06 02:53:46;;;;;;;4.47;1.10;;;14.70;93.00;;;;;;4997356;28;20054;-80
2024/04/06 02:56:12;;;;;;;2.58;1.02;;;14.70;92.50;;;;;;4997035;28;20054;-81
2024/04/06 02:58:38;;;;;;;3.30;0.98;;;14.70;92.30;;;;;;4996745;28;20120;-81
2024/04/06 03:01:04;;;;;;;2.55;1.20;;;14.60;92.40;;;;;;4997135;28;20386;-79
2024/04/06 03:03:30;;;;;;;2.05;0.90;;;14.70;93.20;;;;;;4996884;28;20054;-82
2024/04/06 03:05:56;;;;;;;2.80;1.10;;;14.70;93.20;;;;;;4996613;28;20120;-80
2024/04/06 03:08:23;;;;;;;1.88;1.00;;;14.70;93.10;;;;;;5013687;28;20054;-80
2024/04/06 03:10:48;;;;;;;1.42;1.00;;;14.70;93.50;;;;;;4996846;28;20046;-80
2024/04/06 03:13:14;;;;;;;1.40;0.95;;;14.70;93.10;;;;;;4997148;28;20114;-80
2024/04/06 03:15:40;;;;;;;3.10;1.20;;;14.60;93.60;;;;;;4998627;28;20053;-80
2024/04/06 03:18:06;;;;;;;3.72;0.98;;;14.60;93.60;;;;;;4997170;28;20136;-81
2024/04/06 03:20:32;;;;;;;3.22;1.00;;;14.60;93.70;;;;;;4996103;28;20525;-81
2024/04/06 03:23:04;;;;;;;1.80;1.20;;;14.70;93.50;;;;;;4996367;28;20129;-81
2024/04/06 03:25:32;;;;;;;3.55;1.25;;;14.70;93.80;;;;;;4979189;28;20111;-80
2024/04/06 03:27:59;;;;;;;3.15;1.25;;;14.70;93.60;;;;;;4996282;28;20050;-81
2024/04/06 03:30:25;;;;;;;3.40;2.15;;;14.70;93.30;;;;;;4996280;28;20054;-80
2024/04/06 03:32:54;;;;;;;5.70;1.75;;;14.60;93.70;;;;;;4996270;28;20399;-81
2024/04/06 03:35:20;;;;;;;4.43;2.00;;;14.60;93.60;;;;;;4996101;28;20120;-81
2024/04/06 03:37:47;;;;;;;3.95;1.60;;;14.60;93.20;;;;;;4996207;28;20062;-81
2024/04/06 03:40:14;;;;;;;5.53;1.40;;;14.60;93.00;;;;;;4995898;28;20049;-80
2024/04/06 03:42:40;;;;;;;7.38;1.40;;;14.60;93.20;;;;;;4994688;28;20049;-81
2024/04/06 03:45:06;;;;;;;4.50;2.15;;;14.60;93.90;;;;;;4996504;28;20053;-80
2024/04/06 03:47:32;;;;;;;3.55;1.33;;;14.60;93.80;;;;;;4995773;28;20053;-81
2024/04/06 03:49:58;;;;;;;2.92;1.20;;;14.60;93.70;;;;;;4996210;28;20053;-80
2024/04/06 03:52:27;;;;;;;2.53;1.20;;;14.60;94.10;;;;;;4995831;28;20366;-80
2024/04/06 03:54:53;;;;;;;3.28;1.30;;;14.60;93.80;;;;;;4995666;28;20050;-80
2024/04/06 03:57:19;;;;;;;2.80;1.10;;;14.60;94.30;;;;;;4995608;28;20054;-81
2024/04/06 03:59:45;;;;;;;6.65;1.60;;;14.60;94.30;;;;;;4995988;28;20058;-80
2024/04/06 04:02:11;;;;;;;4.95;1.50;;;14.60;94.40;;;;;;4995714;28;20061;-81
2024/04/06 04:04:36;;;;;;;3.60;1.40;;;14.60;93.90;;;;;;4995180;28;20171;-80
2024/04/06 04:07:03;;;;;;;3.45;1.67;;;14.50;94.30;;;;;;4979007;28;20081;-81
2024/04/06 04:09:29;;;;;;;5.15;1.27;;;14.50;94.40;;;;;;4995975;28;20403;-80
2024/04/06 04:11:55;;;;;;;3.17;1.70;;;14.50;94.40;;;;;;4995872;28;20068;-80
2024/04/06 04:14:20;;;;;;;4.35;1.83;;;14.50;94.30;;;;;;4995446;28;20053;-79
2024/04/06 04:16:47;;;;;;;5.13;1.40;;;14.50;94.60;;;;;;4994857;28;20061;-81
2024/04/06 04:19:13;;;;;;;3.58;1.42;;;14.50;94.50;;;;;;4994831;28;20050;-80
2024/04/06 04:21:41;;;;;;;4.65;1.50;;;14.40;94.20;;;;;;4995454;28;20058;-80
2024/04/06 04:24:07;;;;;;;3.17;1.60;;;14.40;94.70;;;;;;4977391;28;20060;-81
2024/04/06 04:26:33;;;;;;;4.00;1.27;;;14.30;95.00;;;;;;4996003;28;20050;-80
2024/04/06 04:29:02;;;;;;;4.13;1.50;;;14.30;95.00;;;;;;4995927;28;20058;-80
2024/04/06 04:31:28;;;;;;;3.15;1.65;;;14.30;95.40;;;;;;4995094;28;20493;-81
2024/04/06 04:33:54;;;;;;;2.95;1.70;;;14.30;95.70;;;;;;4994987;28;20054;-80
2024/04/06 04:36:20;;;;;;;2.25;1.35;;;14.30;95.60;;;;;;4995633;28;20153;-80
2024/04/06 04:38:45;;;;;;;4.93;1.45;;;14.30;95.80;;;;;;4995300;28;20518;-81
2024/04/06 04:41:12;;;;;;;1.58;1.10;;;14.30;95.50;;;;;;4995330;28;20076;-80
2024/04/06 04:43:38;;;;;;;4.35;1.90;;;14.30;95.50;;;;;;4978819;28;20360;-79
2024/04/06 04:46:04;;;;;;;8.15;3.22;;;14.30;95.60;;;;;;4994989;28;20056;-82
2024/04/06 04:48:50;;;;;;;5.55;2.90;;;14.30;95.60;;;;;;4960772;28;20054;-79
2024/04/06 04:51:16;;;;;;;4.28;1.75;;;14.30;95.50;;;;;;4994649;28;20068;-81
2024/04/06 04:53:42;;;;;;;3.40;1.75;;;14.30;95.70;;;;;;4994301;28;20121;-81
2024/04/06 04:56:08;;;;;;;4.05;2.13;;;14.30;95.70;;;;;;4994446;28;20115;-79
2024/04/06 04:58:34;;;;;;;4.25;2.75;;;14.30;95.70;;;;;;4994523;28;20505;-80
2024/04/06 05:01:00;;;;;;;8.48;2.25;;;14.30;95.90;;;;;;4994805;28;20058;-80
2024/04/06 05:03:26;;;;;;;3.58;1.73;;;14.30;96.00;;;;;;4994561;28;20050;-81
2024/04/06 05:05:53;;;;;;;5.35;1.90;;;14.30;95.90;;;;;;4994443;28;20065;-81
2024/04/06 05:08:19;;;;;;;7.28;1.60;;;14.30;96.30;;;;;;4994387;28;20053;-80
2024/04/06 05:10:45;;;;;;;4.43;1.63;;;14.30;96.10;;;;;;4994549;28;20061;-81
2024/04/06 05:13:11;;;;;;;7.18;1.40;;;14.30;96.10;;;;;;4994618;28;20394;-79
2024/04/06 05:15:37;;;;;;;5.32;1.52;;;14.30;95.90;;;;;;4994909;28;20161;-79
2024/04/06 05:18:03;;;;;;;3.90;1.50;;;14.30;96.10;;;;;;4994103;28;20123;-80
2024/04/06 05:20:29;;;;;;;4.53;1.80;;;14.30;95.90;;;;;;4994328;28;20474;-80
2024/04/06 05:22:55;;;;;;;4.53;1.55;;;14.30;95.90;;;;;;4990300;28;20054;-81
2024/04/06 05:25:21;;;;;;;2.47;1.30;;;14.30;95.60;;;;;;4991619;28;20085;-80
2024/04/06 05:27:49;;;;;;;3.10;1.40;;;14.30;95.50;;;;;;4991789;28;20379;-80
2024/04/06 05:30:15;;;;;;;3.10;1.48;;;14.30;95.50;;;;;;4991521;28;20113;-79
2024/04/06 05:32:41;;;;;;;2.90;1.45;;;14.30;95.50;;;;;;4992258;28;20054;-80
2024/04/06 05:35:09;;;;;;;5.95;1.30;;;14.40;95.80;;;;;;4986874;28;20054;-80
2024/04/06 05:37:35;;;;;;;19.38;2.00;;;14.40;95.50;;;;;;4991480;28;20062;-79
2024/04/06 05:40:01;;;;;;;2.55;1.30;;;14.50;95.20;;;;;;4991205;28;20145;-80
2024/04/06 05:42:27;;;;;;;6.25;1.67;;;14.50;95.10;;;;;;4991231;28;20391;-80
2024/04/06 05:44:53;;;;;;;4.60;1.52;;;14.60;95.40;;;;;;4990912;28;20043;-80
2024/04/06 05:47:19;;;;;;;3.33;1.63;;;14.60;95.00;;;;;;4987516;28;20129;-80
2024/04/06 05:49:45;;;;;;;5.15;1.50;;;14.70;94.80;;;;;;4991228;28;20046;-80
2024/04/06 05:52:11;;;;;;;3.50;1.52;;;14.70;94.50;;;;;;4990069;28;20058;-80
2024/04/06 05:54:37;;;;;;;2.40;1.90;;;14.70;94.60;;;;;;4988614;28;20494;-81
2024/04/06 05:57:03;;;;;;;8.27;2.15;;;14.80;95.00;;;;;;4991070;28;20386;-81
2024/04/06 05:59:29;;;;;;;2.45;1.70;;;14.80;94.70;;;;;;4991134;28;20050;-81
2024/04/06 06:01:55;;;;;;;3.70;1.83;;;14.90;94.70;;;;;;4991083;28;20100;-81
2024/04/06 06:04:21;;;;;;;3.20;1.50;;;14.90;94.50;;;;;;4986444;28;20062;-81
2024/04/06 06:06:47;;;;;;;2.58;1.52;;;15.00;94.40;;;;;;4994229;28;20054;-81
2024/04/06 06:09:13;;;;;;;4.25;1.45;;;15.00;94.40;;;;;;4994614;28;20050;-81
2024/04/06 06:11:39;;;;;;;2.85;1.40;;;15.10;93.70;;;;;;4994589;28;20124;-81
2024/04/06 06:14:04;;;;;;;1.50;1.20;;;15.20;93.50;;;;;;4994948;28;20077;-81
2024/04/06 06:16:30;;;;;;;3.88;1.25;;;15.20;94.00;;;;;;4994897;28;20791;-81
2024/04/06 06:18:56;;;;;;;6.80;1.63;;;15.30;94.00;;;;;;5001293;28;20117;-81
2024/04/06 06:21:22;;;;;;;2.75;1.27;;;15.30;94.10;;;;;;4993171;28;20063;-81
2024/04/06 06:23:48;;;;;;;6.05;1.50;;;15.40;93.20;;;;;;4994007;28;20491;-81
2024/04/06 06:26:19;;;;;;;5.00;1.40;;;15.50;92.80;;;;;;4993970;28;20131;-81
2024/04/06 06:28:45;;;;;;;2.90;1.15;;;15.50;92.40;;;;;;4993990;28;20438;-81
2024/04/06 06:31:11;;;;;;;1.85;0.98;;;15.60;91.80;;;;;;4976168;28;20089;-81
2024/04/06 06:33:37;;;;;;;4.40;1.70;;;15.70;91.30;;;;;;4989776;28;20050;-82
2024/04/06 06:36:03;;;;;;;5.75;1.77;;;15.70;90.70;;;;;;4977407;28;20152;-81
2024/04/06 06:38:29;;;;;;;2.80;1.60;;;15.80;89.70;;;;;;5010788;28;20062;-81
2024/04/06 06:40:55;;;;;;;2.17;1.20;;;15.80;89.90;;;;;;4991887;28;20134;-81
2024/04/06 06:43:20;;;;;;;3.55;1.23;;;15.80;89.60;;;;;;4992476;28;20141;-82
2024/04/06 06:45:46;;;;;;;3.13;1.30;;;15.90;89.10;;;;;;4994073;28;20046;-81
2024/04/06 06:48:12;;;;;;;5.30;1.30;;;15.90;88.50;;;;;;4994190;28;20085;-81
2024/04/06 06:50:38;;;;;;;5.05;1.05;;;15.90;86.80;;;;;;4992038;28;20161;-81
2024/04/06 06:53:07;;;;;;;3.38;1.05;;;15.90;86.20;;;;;;4992790;28;20109;-82
2024/04/06 06:55:33;;;;;;;3.05;0.93;;;15.90;86.00;;;;;;4994296;28;20050;-81
2024/04/06 06:57:59;;;;;;;1.65;0.90;;;16.00;85.30;;;;;;4994533;28;20077;-81
2024/04/06 07:00:25;;;;;;;3.25;1.00;;;16.10;83.20;;;;;;4992595;28;20463;-81
2024/04/06 07:02:50;;;;;;;2.97;1.23;;;16.20;82.30;;;;;;4991350;28;20050;-82
2024/04/06 07:05:19;;;;;;;2.78;0.88;;;16.30;83.00;;;;;;5009107;28;20085;-81
2024/04/06 07:07:55;;;;;;;2.80;1.10;;;16.40;80.00;;;;;;4993003;28;20383;-81
2024/04/06 07:10:21;;;;;;;5.50;1.20;;;16.40;79.20;;;;;;4979728;28;20120;-82
2024/04/06 07:12:48;;;;;;;2.45;1.05;;;16.50;79.40;;;;;;4994137;28;20462;-82
2024/04/06 07:15:13;;;;;;;2.90;1.05;;;16.60;78.50;;;;;;4992790;28;20593;-82
2024/04/06 07:17:42;;;;;;;7.30;1.15;;;16.70;78.50;;;;;;4993880;28;20051;-82
2024/04/06 07:20:08;;;;;;;2.78;0.90;;;16.80;78.10;;;;;;4994189;28;20065;-82
2024/04/06 07:22:34;;;;;;;4.22;0.88;;;17.00;78.30;;;;;;4974342;28;20094;-81
2024/04/06 07:25:00;;;;;;;2.35;1.00;;;17.10;77.50;;;;;;4994024;28;20042;-82
2024/04/06 07:27:26;;;;;;;4.35;1.20;;;17.20;75.70;;;;;;4992593;28;20062;-83
2024/04/06 07:29:53;;;;;;;3.13;1.00;;;17.30;75.20;;;;;;5010309;28;20375;-82
2024/04/06 07:32:19;;;;;;;4.00;1.10;;;17.40;74.10;;;;;;4993893;28;20058;-82
2024/04/06 07:34:44;;;;;;;2.95;1.20;;;17.50;75.60;;;;;;4993439;28;20128;-82
2024/04/06 07:37:11;;;;;;;5.28;1.05;;;17.70;75.80;;;;;;5009839;28;20065;-82
2024/04/06 07:39:37;;;;;;;2.88;1.00;;;17.80;74.40;;;;;;5009700;28;20050;-82
2024/04/06 07:42:03;;;;;;;1.42;0.77;;;17.90;72.40;;;;;;4993507;28;20108;-82
2024/04/06 07:44:29;;;;;;;3.08;0.95;;;18.10;73.50;;;;;;4993243;28;20498;-82
2024/04/06 07:46:54;;;;;;;3.88;0.90;;;18.20;72.50;;;;;;4993771;28;20062;-83
2024/04/06 07:49:20;;;;;;;1.92;0.80;;;18.30;72.10;;;;;;4993537;28;20061;-83
2024/04/06 07:51:46;;;;;;;6.63;0.90;;;18.50;68.80;;;;;;5007734;28;20043;-83
2024/04/06 07:54:12;;;;;;;3.40;1.10;;;18.60;68.50;;;;;;4993638;28;20395;-82
2024/04/06 07:56:42;;;;;;;3.63;1.40;;;18.70;66.90;;;;;;4993422;28;20058;-81
2024/04/06 07:59:07;;;;;;;5.85;1.30;;;18.80;66.80;;;;;;4993713;28;20054;-83
2024/04/06 08:01:33;;;;;;;6.20;1.23;;;18.90;67.00;;;;;;4976066;28;20460;-82
2024/04/06 08:03:59;;;;;;;3.78;1.15;;;19.10;66.50;;;;;;4973212;28;20533;-82
2024/04/06 08:06:25;;;;;;;4.30;1.17;;;19.20;65.90;;;;;;4977625;28;20058;-83
2024/04/06 08:08:51;;;;;;;1.75;0.90;;;19.40;66.00;;;;;;4993619;28;20097;-83
2024/04/06 08:11:17;;;;;;;2.63;1.25;;;19.50;65.00;;;;;;5009788;28;20050;-83
2024/04/06 08:13:43;;;;;;;2.80;0.95;;;19.70;67.60;;;;;;4993480;28;20054;-83
2024/04/06 08:16:10;;;;;;;6.95;1.05;;;19.80;65.50;;;;;;4993694;28;20081;-84
2024/04/06 08:18:38;;;;;;;10.98;1.45;;;20.00;63.00;;;;;;4993316;28;20066;-82
2024/04/06 08:21:04;;;;;;;3.67;1.30;;;20.10;62.40;;;;;;4993476;28;20057;-83
2024/04/06 08:23:32;;;;;;;8.52;1.55;;;20.30;62.20;;;;;;4993616;28;20392;-83
2024/04/06 08:25:58;;;;;;;2.35;1.20;;;20.40;61.30;;;;;;5010291;28;20054;-83
2024/04/06 08:28:26;;;;;;;3.42;1.45;;;20.60;61.40;;;;;;5009999;28;20065;-84
2024/04/06 08:30:52;;;;;;;2.25;0.93;;;20.80;62.80;;;;;;4994829;28;20053;-84
2024/04/06 08:33:18;;;;;;;4.40;1.27;;;20.90;62.60;;;;;;4994535;28;20197;-84
2024/04/06 08:35:44;;;;;;;3.33;1.23;;;21.10;61.20;;;;;;5011607;28;20100;-84
2024/04/06 08:38:11;;;;;;;7.07;1.40;;;21.20;60.60;;;;;;4994650;28;20801;-83
2024/04/06 08:40:41;;;;;;;5.47;1.38;;;21.30;59.10;;;;;;4989391;28;20058;-84
2024/04/06 08:43:12;;;;;;;3.58;1.23;;;21.40;60.60;;;;;;5011643;28;20471;-84
2024/04/06 08:45:39;;;;;;;2.83;0.95;;;21.50;60.30;;;;;;4989618;28;20066;-83
2024/04/06 08:48:10;;;;;;;2.42;1.10;;;21.70;58.40;;;;;;4993335;28;20054;-84
2024/04/06 08:50:37;;;;;;;4.53;1.65;;;21.80;58.10;;;;;;5007963;28;20053;-84
2024/04/06 08:53:06;;;;;;;1.70;1.20;;;22.00;58.10;;;;;;4993894;28;20483;-84
2024/04/06 08:55:33;;;;;;;5.65;1.55;;;22.20;58.70;;;;;;5006410;28;20116;-84
2024/04/06 08:57:59;;;;;;;4.50;1.30;;;22.30;57.30;;;;;;4994205;28;20066;-84
2024/04/06 09:00:27;;;;;;;3.40;1.40;;;22.50;56.90;;;;;;4989758;28;20061;-84
2024/04/06 09:02:53;;;;;;;6.10;1.45;;;22.60;57.10;;;;;;4992698;28;20046;-84
2024/04/06 09:05:19;;;;;;;5.53;1.30;;;22.80;58.70;;;;;;4993144;28;20050;-84
2024/04/06 09:07:49;;;;;;;5.30;1.58;;;22.90;57.40;;;;;;4991597;28;20077;-84
2024/04/06 09:10:15;;;;;;;6.07;1.42;;;23.00;58.50;;;;;;4994006;28;20050;-84
2024/04/06 09:12:42;;;;;;;3.33;1.40;;;23.20;57.50;;;;;;4994145;28;20069;-84
2024/04/06 09:15:14;;;;;;;5.40;1.30;;;23.30;56.80;;;;;;4994607;28;20046;-84
2024/04/06 09:17:41;;;;;;;4.28;1.80;;;23.50;56.60;;;;;;4993994;28;20050;-85
2024/04/06 09:20:08;;;;;;;2.47;1.33;;;23.60;55.60;;;;;;4993680;28;20069;-84
2024/04/06 09:22:33;;;;;;;8.05;1.70;;;23.80;55.00;;;;;;4990505;28;20062;-86
2024/04/06 09:25:07;;;;;;;3.78;1.40;;;24.00;54.90;;;;;;4991583;28;20451;-85
2024/04/06 09:27:33;;;;;;;2.67;1.30;;;24.10;54.60;;;;;;4976728;28;20058;-85
2024/04/06 09:30:00;;;;;;;3.88;1.48;;;24.40;54.50;;;;;;4990446;28;20121;-84
2024/04/06 09:32:29;;;;;;;7.05;1.48;;;24.50;55.00;;;;;;4992834;28;20725;-84
2024/04/06 09:34:55;;;;;;;2.33;1.63;;;24.60;53.50;;;;;;4991520;28;20379;-84
2024/04/06 09:37:27;;;;;;;3.95;1.25;;;24.70;53.30;;;;;;4992056;28;20046;-85
2024/04/06 09:39:55;;;;;;;2.55;1.30;;;24.90;54.20;;;;;;4989133;28;20059;-84
2024/04/06 09:42:22;;;;;;;7.53;1.80;;;25.10;52.50;;;;;;4995674;28;20450;-84
2024/04/06 09:44:49;;;;;;;4.00;1.45;;;25.30;53.10;;;;;;4996151;28;20054;-85
2024/04/06 09:47:20;;;;;;;4.70;1.30;;;25.40;53.10;;;;;;4996084;28;20047;-84
2024/04/06 09:49:48;;;;;;;7.53;1.40;;;25.60;53.20;;;;;;4996659;28;20050;-84
2024/04/06 09:52:18;;;;;;;4.40;1.17;;;25.70;52.50;;;;;;4996021;28;20502;-84
2024/04/06 09:54:46;;;;;;;2.25;0.98;;;25.90;52.00;;;;;;4996489;28;20383;-84
2024/04/06 09:57:16;;;;;;;6.82;1.20;;;26.00;52.30;;;;;;4996348;28;20062;-84
2024/04/06 09:59:43;;;;;;;11.85;1.67;;;26.00;51.20;;;;;;4995564;28;20058;-84
2024/04/06 10:02:09;;;;;;;6.03;1.40;;;26.20;52.20;;;;;;4996058;28;20050;-84
2024/04/06 10:04:36;;;;;;;6.90;1.30;;;26.30;51.20;;;;;;4979526;28;20434;-83
2024/04/06 10:07:04;;;;;;;3.33;1.38;;;26.40;50.70;;;;;;4995972;28;20062;-84
2024/04/06 10:09:31;;;;;;;5.32;1.50;;;26.40;49.90;;;;;;4993516;28;20411;-84
2024/04/06 10:12:02;;;;;;;5.32;1.55;;;26.50;49.40;;;;;;4995549;28;20081;-84
2024/04/06 10:14:43;;;;;;;3.78;1.35;;;26.60;50.30;;;;;;5012566;28;20054;-84
2024/04/06 10:17:13;;;;;;;5.28;1.30;;;26.70;49.20;;;;;;4993387;28;20057;-84
2024/04/06 10:19:42;;;;;;;5.38;1.10;;;26.80;49.80;;;;;;4995754;28;20051;-84
2024/04/06 10:22:08;;;;;;;4.63;0.93;;;26.80;48.60;;;;;;4992700;28;20073;-83
2024/04/06 10:24:35;;;;;;;5.35;1.33;;;26.90;47.50;;;;;;4995457;28;20463;-84
2024/04/06 10:27:02;;;;;;;3.70;1.10;;;27.00;47.00;;;;;;4995643;28;20719;-84
2024/04/06 10:29:31;;;;;;;2.00;0.90;;;27.20;46.40;;;;;;4995872;28;20451;-85
2024/04/06 10:31:57;;;;;;;1.15;0.60;;;27.20;44.60;;;;;;4992684;28;20067;-83
2024/04/06 10:34:25;;;;;;;1.73;0.75;;;27.10;40.50;;;;;;4995002;28;20066;-84
2024/04/06 10:36:51;;;;;;;4.00;0.68;;;27.20;41.60;;;;;;4995484;28;20058;-84
2024/04/06 10:39:18;;;;;;;2.33;0.75;;;27.30;43.80;;;;;;4991489;28;20471;-83
2024/04/06 10:41:44;;;;;;;3.92;1.23;;;27.50;42.90;;;;;;4997608;28;20065;-84
2024/04/06 10:44:13;;;;;;;2.65;0.88;;;27.60;43.00;;;;;;4992953;28;20054;-84
2024/04/06 10:46:39;;;;;;;3.17;0.70;;;27.80;42.00;;;;;;4995196;28;20050;-84
2024/04/06 10:49:13;;;;;;;2.08;0.95;;;27.90;40.00;;;;;;4995193;28;20061;-84
2024/04/06 10:51:39;;;;;;;2.08;1.00;;;28.10;39.50;;;;;;4992224;28;20109;-84
2024/04/06 10:54:05;;;;;;;1.55;0.68;;;28.30;38.90;;;;;;4992840;28;20063;-84
2024/04/06 10:56:34;;;;;;;1.52;0.70;;;28.50;41.40;;;;;;4999083;28;20070;-84
2024/04/06 10:59:01;;;;;;;1.58;0.85;;;28.80;38.60;;;;;;4995151;28;20401;-84
2024/04/06 11:01:34;;;;;;;2.67;1.00;;;29.00;39.00;;;;;;4995148;28;20360;-84
2024/04/06 11:04:04;;;;;;;1.23;0.70;;;29.20;37.00;;;;;;4995111;28;20062;-85
2024/04/06 11:06:30;;;;;;;3.67;0.60;;;29.60;36.50;;;;;;4994811;28;20069;-84
2024/04/06 11:09:00;;;;;;;3.03;0.85;;;29.90;36.70;;;;;;5012595;28;20050;-84
2024/04/06 11:11:28;;;;;;;3.88;0.85;;;30.40;37.00;;;;;;4994015;28;20062;-84
2024/04/06 11:13:58;;;;;;;3.13;1.00;;;30.80;37.60;;;;;;4976456;28;20076;-85
2024/04/06 11:16:27;;;;;;;2.70;1.17;;;31.00;32.50;;;;;;4994168;28;20065;-83
2024/04/06 11:18:53;;;;;;;1.23;0.70;;;31.10;33.40;;;;;;5011053;28;20054;-85
2024/04/06 11:21:19;;;;;;;3.67;0.80;;;31.50;34.10;;;;;;4993717;28;20054;-85
2024/04/06 11:23:47;;;;;;;1.65;0.60;;;32.20;35.60;;;;;;4993882;28;20073;-85
2024/04/06 11:26:18;;;;;;;1.60;0.52;;;32.90;32.60;;;;;;4994165;28;20050;-84
2024/04/06 11:28:44;;;;;;;2.38;0.70;;;33.40;29.80;;;;;;5002282;28;20046;-84
2024/04/06 11:31:10;;;;;;;1.30;0.60;;;33.80;31.30;;;;;;4994880;28;20161;-84
2024/04/06 11:33:36;;;;;;;1.35;0.47;;;34.30;30.00;;;;;;4992433;28;20058;-84
2024/04/06 11:36:02;;;;;;;1.55;0.60;;;34.60;28.20;;;;;;4993929;28;20471;-84
2024/04/06 11:38:28;;;;;;;3.50;0.80;;;34.80;26.50;;;;;;4992755;28;20050;-84
2024/04/06 11:40:56;;;;;;;3.33;0.75;;;35.10;27.80;;;;;;4990142;28;20497;-85
2024/04/06 11:43:22;;;;;;;1.40;0.63;;;35.50;28.50;;;;;;5009550;28;20053;-84
2024/04/06 11:45:48;;;;;;;2.25;0.65;;;36.10;27.90;;;;;;4992557;28;20058;-85
2024/04/06 11:48:14;;;;;;;2.92;0.70;;;36.60;27.50;;;;;;4994145;28;20058;-86
2024/04/06 11:50:41;;;;;;;3.40;0.70;;;37.20;26.50;;;;;;5010153;28;20059;-85
2024/04/06 11:53:09;;;;;;;1.73;0.70;;;37.80;25.70;;;;;;4994332;28;20058;-83
2024/04/06 11:55:36;;;;;;;1.65;0.60;;;38.20;24.20;;;;;;4992084;28;20499;-84
2024/04/06 11:58:03;;;;;;;3.55;0.70;;;38.70;24.70;;;;;;4993664;28;20050;-84
2024/04/06 12:00:32;;;;;;;2.75;0.65;;;39.10;24.80;;;;;;4993827;28;20072;-86
2024/04/06 12:02:59;;;;;;;1.08;0.60;;;39.40;25.00;;;;;;5008867;28;20058;-85
2024/04/06 12:05:25;;;;;;;3.13;0.80;;;39.60;23.50;;;;;;4993277;28;20383;-85
2024/04/06 12:07:51;;;;;;;3.20;0.80;;;39.80;24.00;;;;;;4991458;28;20062;-84
2024/04/06 12:10:17;;;;;;;1.90;0.70;;;40.00;23.80;;;;;;4993401;28;20113;-84
2024/04/06 12:12:43;;;;;;;3.75;0.57;;;40.30;24.30;;;;;;5009789;28;20062;-83
2024/04/06 12:15:11;;;;;;;0.57;0.43;;;40.80;23.30;;;;;;4993654;28;20061;-83
2024/04/06 12:17:39;;;;;;;2.22;0.60;;;41.40;23.70;;;;;;4993635;28;20756;-83
2024/04/06 12:20:05;;;;;;;1.95;0.70;;;42.10;23.30;;;;;;4993162;28;20046;-82
2024/04/06 12:22:31;;;;;;;2.15;0.85;;;42.60;21.40;;;;;;4993504;28;20062;-83
2024/04/06 12:24:57;;;;;;;3.88;1.02;;;43.00;20.00;;;;;;4993446;28;20069;-83
2024/04/06 12:27:23;;;;;;;3.15;0.80;;;43.10;20.60;;;;;;4990682;28;20459;-85
2024/04/06 12:29:53;;;;;;;3.45;1.20;;;43.20;20.10;;;;;;4993020;28;20081;-86
2024/04/06 12:32:19;;;;;;;1.85;0.70;;;43.20;19.80;;;;;;4992890;28;20062;-83
2024/04/06 12:34:45;;;;;;;2.17;0.50;;;43.40;21.10;;;;;;4993157;28;20479;-83
2024/04/06 12:37:14;;;;;;;0.98;0.52;;;43.60;22.00;;;;;;4992667;28;20054;-83
2024/04/06 12:39:42;;;;;;;2.13;0.70;;;43.80;21.40;;;;;;4993119;28;20237;-83
2024/04/06 12:42:08;;;;;;;2.20;0.70;;;44.20;20.90;;;;;;4994093;28;20062;-82
2024/04/06 12:44:35;;;;;;;0.85;0.40;;;44.70;20.70;;;;;;4991337;28;20065;-83